Time;durP1;ratioP1;P1;durP2;ratioP2;P2;SDS_P1;SDS_P2;PMS_P1;PMS_P2;Temp;Humidity;BMP_temperature;BMP_pressure;BME280_temperature;BME280_humidity;BME280_pressure;Samples;Min_cycle;Max_cycle;Signal;HPM_P1;HPM_P2
2022/08/10 00:01:50;;;;;;;;;;;;;;;19.40;60.00;100292.47;4803646;29;20035;-72
2022/08/10 00:04:20;;;;;;;;;;;;;;;19.29;60.38;100289.28;4811243;29;19929;-70
2022/08/10 00:06:50;;;;;;;;;;;;;;;19.24;60.83;100291.16;4819414;29;20292;-72
2022/08/10 00:09:20;;;;;;;;;;;;;;;19.23;61.19;100289.44;4818276;29;19929;-71
2022/08/10 00:11:48;;;;;;;;;;;;;;;19.22;61.16;100292.91;4817935;29;20005;-69
2022/08/10 00:14:17;;;;;;;;;;;;;;;19.22;61.45;100301.53;4816359;29;19929;-68
2022/08/10 00:16:46;;;;;;;;;;;;;;;19.24;61.48;100297.16;4811247;29;20379;-71
2022/08/10 00:19:16;;;;;;;;;;;;;;;19.25;61.90;100292.81;4810976;29;19962;-68
2022/08/10 00:21:46;;;;;;;;;;;;;;;19.31;62.25;100297.88;4808961;29;20016;-73
2022/08/10 00:24:14;;;;;;;;;;;;;;;19.30;62.14;100299.59;4821373;29;19972;-70
2022/08/10 00:26:43;;;;;;;;;;;;;;;19.26;62.41;100299.72;4820394;29;19979;-71
2022/08/10 00:29:31;;;;;;;;;;;;;;;19.19;62.40;100293.00;4808804;29;19929;-73
2022/08/10 00:32:00;;;;;;;;;;;;;;;19.17;62.17;100295.63;4818026;29;19929;-71
2022/08/10 00:34:31;;;;;;;;;;;;;;;19.15;62.19;100293.94;4819246;29;19929;-71
2022/08/10 00:37:00;;;;;;;;;;;;;;;19.10;62.36;100293.25;4808798;29;19936;-70
2022/08/10 00:39:29;;;;;;;;;;;;;;;19.02;62.52;100290.00;4819085;29;19929;-72
2022/08/10 00:42:05;;;;;;;;;;;;;;;19.01;62.87;100283.09;4817708;29;19994;-73
2022/08/10 00:44:36;;;;;;;;;;;;;;;18.97;62.56;100291.84;4814354;29;19945;-74
2022/08/10 00:47:05;;;;;;;;;;;;;;;18.87;62.51;100291.22;4790336;29;20372;-74
2022/08/10 00:49:35;;;;;;;;;;;;;;;18.81;62.52;100295.72;4822680;29;19929;-73
2022/08/10 00:52:04;;;;;;;;;;;;;;;18.83;62.76;100301.69;4812906;29;19972;-73
2022/08/10 00:54:34;;;;;;;;;;;;;;;18.84;62.53;100300.78;4810081;29;19929;-73
2022/08/10 00:57:03;;;;;;;;;;;;;;;18.90;62.65;100300.66;4813038;29;20342;-69
2022/08/10 00:59:46;;;;;;;;;;;;;;;18.93;62.50;100301.41;4823464;29;20015;-68
2022/08/10 01:02:28;;;;;;;;;;;;;;;18.82;62.58;100302.56;4822404;29;19961;-73
2022/08/10 01:05:00;;;;;;;;;;;;;;;18.69;62.92;100310.63;4824645;29;19929;-73
2022/08/10 01:07:48;;;;;;;;;;;;;;;18.69;62.87;100308.03;4806867;29;20007;-73
2022/08/10 01:10:22;;;;;;;;;;;;;;;18.68;63.06;100308.94;4809609;29;20024;-68
2022/08/10 01:12:54;;;;;;;;;;;;;;;18.62;63.24;100306.47;4811341;29;19986;-70
2022/08/10 01:15:27;;;;;;;;;;;;;;;18.59;63.25;100303.97;4820061;29;19935;-69
2022/08/10 01:18:00;;;;;;;;;;;;;;;18.52;63.49;100304.97;4819353;29;20352;-74
2022/08/10 01:20:34;;;;;;;;;;;;;;;18.40;63.85;100305.25;4825965;29;19993;-73
2022/08/10 01:23:21;;;;;;;;;;;;;;;18.26;63.83;100302.09;4823132;29;20475;-71
2022/08/10 01:26:00;;;;;;;;;;;;;;;18.20;64.15;100297.09;4815204;29;20020;-68
2022/08/10 01:28:47;;;;;;;;;;;;;;;18.14;64.55;100310.13;4818777;29;20392;-69
2022/08/10 01:31:20;;;;;;;;;;;;;;;18.08;64.74;100308.53;4817502;29;19929;-71
2022/08/10 01:33:52;;;;;;;;;;;;;;;18.07;64.99;100300.78;4821727;29;19935;-70
2022/08/10 01:36:29;;;;;;;;;;;;;;;18.03;65.03;100305.19;4814676;29;19928;-70
2022/08/10 01:39:01;;;;;;;;;;;;;;;18.02;65.08;100297.47;4823305;29;20328;-71
2022/08/10 01:41:37;;;;;;;;;;;;;;;18.00;65.17;100294.06;4818958;29;20368;-69
2022/08/10 01:44:16;;;;;;;;;;;;;;;18.01;65.55;100306.09;4811572;29;19951;-73
2022/08/10 01:46:50;;;;;;;;;;;;;;;17.96;65.45;100288.13;4818783;29;20429;-70
2022/08/10 01:49:24;;;;;;;;;;;;;;;17.92;65.35;100295.97;4825523;29;19985;-72
2022/08/10 01:51:55;;;;;;;;;;;;;;;17.91;65.38;100295.13;4812549;29;20346;-73
2022/08/10 01:54:29;;;;;;;;;;;;;;;17.91;65.57;100289.94;4809858;29;19929;-73
2022/08/10 01:56:58;;;;;;;;;;;;;;;17.89;65.48;100296.03;4823770;29;19933;-69
2022/08/10 01:59:30;;;;;;;;;;;;;;;17.87;65.45;100293.50;4821580;29;20276;-71
2022/08/10 02:02:02;;;;;;;;;;;;;;;17.81;65.55;100292.75;4817973;29;19945;-68
2022/08/10 02:04:32;;;;;;;;;;;;;;;17.84;65.61;100292.69;4745304;29;2126596;-69
2022/08/10 02:07:01;;;;;;;;;;;;;;;17.81;65.60;100297.91;4822648;29;19937;-68
2022/08/10 02:09:32;;;;;;;;;;;;;;;17.83;65.70;100298.72;4820611;29;20300;-73
2022/08/10 02:12:02;;;;;;;;;;;;;;;17.81;65.51;100291.00;4816751;29;19982;-71
2022/08/10 02:14:39;;;;;;;;;;;;;;;17.78;65.51;100287.66;4811459;29;19998;-69
2022/08/10 02:17:11;;;;;;;;;;;;;;;17.81;65.36;100288.44;4810949;29;20465;-69
2022/08/10 02:20:02;;;;;;;;;;;;;;;17.93;64.88;100292.50;4818499;29;20391;-68
2022/08/10 02:22:32;;;;;;;;;;;;;;;17.97;64.96;100286.41;4822417;29;20414;-68
2022/08/10 02:25:07;;;;;;;;;;;;;;;18.09;64.66;100288.72;4822374;29;19928;-68
2022/08/10 02:27:36;;;;;;;;;;;;;;;18.07;64.38;100285.28;4819716;29;20447;-68
2022/08/10 02:30:06;;;;;;;;;;;;;;;18.00;64.50;100283.72;4823376;29;19971;-68
2022/08/10 02:32:37;;;;;;;;;;;;;;;17.98;64.56;100286.34;4817143;29;19929;-68
2022/08/10 02:35:07;;;;;;;;;;;;;;;18.02;64.71;100292.28;4808863;29;19936;-74
2022/08/10 02:37:50;;;;;;;;;;;;;;;18.03;64.54;100283.66;4822742;29;20268;-68
2022/08/10 02:40:19;;;;;;;;;;;;;;;17.93;64.82;100297.66;4811979;29;19929;-68
2022/08/10 02:43:15;;;;;;;;;;;;;;;17.90;64.85;100292.56;4810089;29;20016;-68
2022/08/10 02:46:06;;;;;;;;;;;;;;;17.90;64.76;100295.16;4810811;29;19929;-73
2022/08/10 02:48:39;;;;;;;;;;;;;;;17.88;64.69;100299.47;4809995;29;19935;-73
2022/08/10 02:51:11;;;;;;;;;;;;;;;17.86;64.78;100290.91;4820422;29;19929;-73
2022/08/10 02:53:42;;;;;;;;;;;;;;;17.84;64.75;100293.53;4820756;29;19936;-73
2022/08/10 02:56:26;;;;;;;;;;;;;;;17.88;64.43;100297.75;4823419;29;19929;-73
2022/08/10 02:58:58;;;;;;;;;;;;;;;17.90;64.30;100290.81;4817239;29;19978;-68
2022/08/10 03:01:29;;;;;;;;;;;;;;;17.88;64.35;100299.47;4816116;29;19963;-68
2022/08/10 03:04:00;;;;;;;;;;;;;;;17.78;64.63;100292.81;4812200;29;19965;-68
2022/08/10 03:06:34;;;;;;;;;;;;;;;17.75;64.74;100298.91;4820992;29;19936;-68
2022/08/10 03:09:03;;;;;;;;;;;;;;;17.66;64.95;100293.06;4820225;29;20267;-68
2022/08/10 03:11:34;;;;;;;;;;;;;;;17.69;64.92;100298.16;4817282;29;19964;-68
2022/08/10 03:14:24;;;;;;;;;;;;;;;17.66;64.80;100290.50;4812562;29;19929;-68
2022/08/10 03:16:53;;;;;;;;;;;;;;;17.62;65.12;100291.41;4805254;29;19936;-69
2022/08/10 03:19:24;;;;;;;;;;;;;;;17.60;65.24;100298.34;4818249;29;20396;-69
2022/08/10 03:22:14;;;;;;;;;;;;;;;17.43;65.44;100296.91;4808230;29;19975;-69
2022/08/10 03:24:43;;;;;;;;;;;;;;;17.27;65.94;100300.66;4815135;29;19964;-68
2022/08/10 03:27:13;;;;;;;;;;;;;;;17.21;66.07;100300.75;4814510;29;20027;-68
2022/08/10 03:29:42;;;;;;;;;;;;;;;17.17;66.23;100298.25;4820601;29;19993;-68
2022/08/10 03:32:31;;;;;;;;;;;;;;;17.13;66.41;100301.78;4795036;29;19940;-68
2022/08/10 03:35:01;;;;;;;;;;;;;;;17.10;66.59;100307.84;4820017;29;19929;-69
2022/08/10 03:37:29;;;;;;;;;;;;;;;17.08;66.92;100316.47;4803090;29;20292;-71
2022/08/10 03:39:58;;;;;;;;;;;;;;;17.04;67.11;100312.22;4807270;29;20261;-68
2022/08/10 03:42:27;;;;;;;;;;;;;;;17.07;67.05;100318.19;4812096;29;19983;-69
2022/08/10 03:44:56;;;;;;;;;;;;;;;17.08;67.33;100319.91;4821000;29;19929;-69
2022/08/10 03:47:25;;;;;;;;;;;;;;;17.11;67.34;100322.41;4817894;29;19929;-68
2022/08/10 03:49:53;;;;;;;;;;;;;;;17.10;67.34;100323.31;4819815;29;20291;-68
2022/08/10 03:52:24;;;;;;;;;;;;;;;17.12;67.58;100321.53;4814914;29;19929;-69
2022/08/10 03:54:52;;;;;;;;;;;;;;;17.15;67.55;100326.66;4809497;29;19929;-68
2022/08/10 03:57:22;;;;;;;;;;;;;;;17.21;67.24;100312.78;4810134;29;19965;-71
2022/08/10 03:59:50;;;;;;;;;;;;;;;17.21;67.19;100321.38;4823303;29;19935;-68
2022/08/10 04:02:19;;;;;;;;;;;;;;;17.20;67.40;100324.81;4817882;29;20291;-69
2022/08/10 04:05:09;;;;;;;;;;;;;;;17.20;67.53;100327.41;4818101;29;20329;-69
2022/08/10 04:07:39;;;;;;;;;;;;;;;17.24;67.36;100338.53;4820050;29;19976;-72
2022/08/10 04:10:08;;;;;;;;;;;;;;;17.34;66.86;100333.19;4819311;29;19929;-72
2022/08/10 04:12:40;;;;;;;;;;;;;;;17.44;66.60;100329.56;4810547;29;19933;-72
2022/08/10 04:15:09;;;;;;;;;;;;;;;17.54;66.32;100329.44;4822098;29;20265;-68
2022/08/10 04:17:37;;;;;;;;;;;;;;;17.61;66.22;100336.19;4818612;29;19962;-68
2022/08/10 04:20:30;;;;;;;;;;;;;;;17.70;65.62;100334.28;4821709;29;19929;-69
2022/08/10 04:23:06;;;;;;;;;;;;;;;17.74;65.04;100327.31;4821637;29;20027;-69
2022/08/10 04:25:36;;;;;;;;;;;;;;;17.81;64.85;100323.72;4821702;29;19929;-68
2022/08/10 04:28:04;;;;;;;;;;;;;;;17.88;64.79;100327.88;4821030;29;20353;-70
2022/08/10 04:30:35;;;;;;;;;;;;;;;17.98;64.35;100332.84;4819931;29;19928;-72
2022/08/10 04:33:05;;;;;;;;;;;;;;;18.09;64.08;100336.06;4817093;29;19936;-76
2022/08/10 04:35:35;;;;;;;;;;;;;;;18.17;63.37;100333.31;4810037;29;20345;-72
2022/08/10 04:38:06;;;;;;;;;;;;;;;18.23;62.81;100335.78;4815806;29;20364;-68
2022/08/10 04:40:34;;;;;;;;;;;;;;;18.33;62.35;100334.69;4819956;29;20269;-68
2022/08/10 04:43:03;;;;;;;;;;;;;;;18.42;62.08;100334.50;4812220;29;19967;-68
2022/08/10 04:45:41;;;;;;;;;;;;;;;18.45;61.98;100334.41;4814474;29;20368;-68
2022/08/10 04:48:20;;;;;;;;;;;;;;;18.47;61.68;100330.13;4805283;29;19929;-68
2022/08/10 04:51:09;;;;;;;;;;;;;;;18.53;61.56;100327.38;4809491;29;19986;-68
2022/08/10 04:53:39;;;;;;;;;;;;;;;18.57;61.32;100329.00;4813130;29;20406;-72
2022/08/10 04:56:29;;;;;;;;;;;;;;;18.66;61.22;100333.97;4811416;29;20649;-69
2022/08/10 04:58:59;;;;;;;;;;;;;;;18.75;60.92;100332.91;4818691;29;19929;-68
2022/08/10 05:01:28;;;;;;;;;;;;;;;18.86;60.72;100327.50;4813682;29;19928;-68
2022/08/10 05:04:17;;;;;;;;;;;;;;;19.02;60.49;100332.25;4816501;29;20390;-68
2022/08/10 05:07:07;;;;;;;;;;;;;;;19.07;60.22;100332.13;4816335;29;19936;-69
2022/08/10 05:09:36;;;;;;;;;;;;;;;19.11;60.06;100331.16;4808202;29;19960;-68
2022/08/10 05:12:25;;;;;;;;;;;;;;;19.16;59.83;100337.06;4809055;29;20008;-72
2022/08/10 05:14:53;;;;;;;;;;;;;;;19.25;59.66;100335.09;4820905;29;19940;-72
2022/08/10 05:17:22;;;;;;;;;;;;;;;19.42;59.75;100337.28;4819519;29;19929;-69
2022/08/10 05:19:51;;;;;;;;;;;;;;;19.54;59.28;100333.53;4820760;29;19928;-68
2022/08/10 05:22:33;;;;;;;;;;;;;;;19.66;59.12;100335.78;4819282;29;19939;-68
2022/08/10 05:25:05;;;;;;;;;;;;;;;19.75;58.85;100326.00;4819033;29;20033;-68
2022/08/10 05:27:34;;;;;;;;;;;;;;;19.86;58.16;100329.19;4816417;29;20350;-68
2022/08/10 05:30:02;;;;;;;;;;;;;;;19.96;57.90;100335.78;4808538;29;20341;-69
2022/08/10 05:32:31;;;;;;;;;;;;;;;20.07;57.56;100327.69;4814820;29;19986;-72
2022/08/10 05:35:20;;;;;;;;;;;;;;;20.18;57.14;100333.41;4804026;29;19929;-72
2022/08/10 05:37:50;;;;;;;;;;;;;;;20.33;56.99;100327.81;4819638;29;19972;-72
2022/08/10 05:40:41;;;;;;;;;;;;;;;20.44;56.49;100324.91;4821768;29;19935;-74
2022/08/10 05:43:18;;;;;;;;;;;;;;;20.57;56.47;100328.81;4816927;29;20304;-72
2022/08/10 05:45:47;;;;;;;;;;;;;;;20.72;56.16;100323.13;4822533;29;20023;-69
2022/08/10 05:48:37;;;;;;;;;;;;;;;20.88;55.98;100326.94;4815063;29;19939;-70
2022/08/10 05:51:25;;;;;;;;;;;;;;;20.95;55.14;100325.84;4809447;29;19936;-75
2022/08/10 05:53:54;;;;;;;;;;;;;;;21.02;54.63;100332.53;4824900;29;20368;-76
2022/08/10 05:56:35;;;;;;;;;;;;;;;21.08;54.26;100331.50;4823787;29;19939;-74
2022/08/10 05:59:26;;;;;;;;;;;;;;;21.18;54.29;100331.16;4820671;29;19929;-74
2022/08/10 06:02:17;;;;;;;;;;;;;;;21.29;54.35;100321.25;4820194;29;20019;-71
2022/08/10 06:05:04;;;;;;;;;;;;;;;21.33;54.24;100328.03;4818092;29;20368;-70
2022/08/10 06:07:35;;;;;;;;;;;;;;;21.38;54.21;100324.44;4819145;29;19929;-70
2022/08/10 06:10:05;;;;;;;;;;;;;;;21.49;54.28;100322.31;4817671;29;19933;-69
2022/08/10 06:12:39;;;;;;;;;;;;;;;21.69;54.07;100333.69;4812519;29;20023;-73
2022/08/10 06:15:23;;;;;;;;;;;;;;;21.84;53.33;100321.91;4826957;29;19933;-73
2022/08/10 06:18:13;;;;;;;;;;;;;;;21.92;52.62;100322.50;4814424;29;20016;-69
2022/08/10 06:20:41;;;;;;;;;;;;;;;22.03;52.04;100330.75;4816419;29;19933;-69
2022/08/10 06:23:10;;;;;;;;;;;;;;;22.05;51.21;100334.16;4824708;29;19945;-72
2022/08/10 06:25:38;;;;;;;;;;;;;;;22.05;51.01;100334.16;4826625;29;19964;-70
2022/08/10 06:28:31;;;;;;;;;;;;;;;22.16;50.76;100328.53;4827061;29;20065;-72
2022/08/10 06:31:00;;;;;;;;;;;;;;;22.28;50.90;100331.53;4826652;29;19936;-71
2022/08/10 06:33:30;;;;;;;;;;;;;;;22.42;50.79;100337.06;4826915;29;19929;-73
2022/08/10 06:36:00;;;;;;;;;;;;;;;22.54;50.23;100333.97;4826943;29;19929;-70
2022/08/10 06:38:32;;;;;;;;;;;;;;;22.68;49.99;100331.72;4826583;29;20322;-71
2022/08/10 06:41:02;;;;;;;;;;;;;;;22.82;50.29;100327.72;4827112;29;19929;-69
2022/08/10 06:43:33;;;;;;;;;;;;;;;22.80;50.15;100330.38;4826469;29;19985;-70
2022/08/10 06:46:06;;;;;;;;;;;;;;;22.77;49.91;100330.47;4826446;29;19936;-69
2022/08/10 06:48:39;;;;;;;;;;;;;;;22.85;49.89;100332.78;4825460;29;20406;-70
2022/08/10 06:51:08;;;;;;;;;;;;;;;22.93;50.07;100330.72;4827123;29;20303;-71
2022/08/10 06:53:38;;;;;;;;;;;;;;;23.03;49.78;100335.50;4826297;29;20376;-71
2022/08/10 06:56:23;;;;;;;;;;;;;;;23.06;49.19;100327.53;4826692;29;19929;-72
2022/08/10 06:59:13;;;;;;;;;;;;;;;23.06;48.80;100326.72;4826649;29;19935;-72
2022/08/10 07:01:52;;;;;;;;;;;;;;;23.17;49.09;100329.72;4826286;29;19936;-71
2022/08/10 07:04:24;;;;;;;;;;;;;;;23.36;49.12;100324.59;4826203;29;20308;-72
2022/08/10 07:07:05;;;;;;;;;;;;;;;23.44;48.73;100323.38;4825407;29;20020;-70
2022/08/10 07:09:36;;;;;;;;;;;;;;;23.57;48.54;100319.31;4826413;29;19929;-70
2022/08/10 07:12:05;;;;;;;;;;;;;;;23.70;48.53;100315.25;4826355;29;20002;-73
2022/08/10 07:14:41;;;;;;;;;;;;;;;23.78;48.11;100318.34;4826346;29;20003;-69
2022/08/10 07:17:11;;;;;;;;;;;;;;;23.86;47.77;100318.88;4826283;29;20020;-71
2022/08/10 07:19:45;;;;;;;;;;;;;;;23.94;47.37;100314.16;4826431;29;19933;-70
2022/08/10 07:22:20;;;;;;;;;;;;;;;23.95;47.23;100320.22;4826280;29;19977;-71
2022/08/10 07:25:10;;;;;;;;;;;;;;;24.00;46.90;100311.25;4825837;29;19936;-70
2022/08/10 07:27:41;;;;;;;;;;;;;;;24.05;46.73;100315.41;4826153;29;19928;-71
2022/08/10 07:30:31;;;;;;;;;;;;;;;24.10;46.28;100318.69;4825226;29;19958;-73
2022/08/10 07:33:00;;;;;;;;;;;;;;;24.18;46.14;100320.06;4825716;29;19936;-72
2022/08/10 07:35:31;;;;;;;;;;;;;;;24.29;45.97;100309.09;4825655;29;19929;-70
2022/08/10 07:38:13;;;;;;;;;;;;;;;24.43;45.97;100317.97;4825890;29;20473;-72
2022/08/10 07:40:42;;;;;;;;;;;;;;;24.46;45.25;100317.00;4826056;29;20431;-71
2022/08/10 07:43:11;;;;;;;;;;;;;;;24.45;45.14;100315.31;4825560;29;19929;-70
2022/08/10 07:45:41;;;;;;;;;;;;;;;24.52;45.31;100314.91;4825599;29;19929;-71
2022/08/10 07:48:12;;;;;;;;;;;;;;;24.69;45.14;100318.50;4825448;29;19929;-70
2022/08/10 07:50:41;;;;;;;;;;;;;;;24.74;44.69;100312.13;4825447;29;19929;-72
2022/08/10 07:53:12;;;;;;;;;;;;;;;24.72;44.50;100324.41;4825577;29;19929;-70
2022/08/10 07:55:41;;;;;;;;;;;;;;;24.77;44.43;100317.25;4826181;29;19961;-71
2022/08/10 07:58:34;;;;;;;;;;;;;;;24.92;44.58;100316.50;4825400;29;19945;-70
2022/08/10 08:01:04;;;;;;;;;;;;;;;25.04;44.19;100313.28;4808996;29;19936;-69
2022/08/10 08:03:33;;;;;;;;;;;;;;;25.21;43.79;100308.06;4825165;29;19951;-73
2022/08/10 08:06:02;;;;;;;;;;;;;;;25.35;43.22;100309.09;4825361;29;19968;-71
2022/08/10 08:08:40;;;;;;;;;;;;;;;25.45;42.94;100310.38;4825990;29;19929;-71
2022/08/10 08:11:10;;;;;;;;;;;;;;;25.65;42.35;100312.78;4825280;29;20019;-70
2022/08/10 08:13:56;;;;;;;;;;;;;;;25.76;42.10;100318.28;4825247;29;19936;-71
2022/08/10 08:16:26;;;;;;;;;;;;;;;25.86;41.87;100306.44;4825416;29;20341;-72
2022/08/10 08:18:56;;;;;;;;;;;;;;;25.93;41.30;100313.88;4825163;29;20380;-71
2022/08/10 08:21:45;;;;;;;;;;;;;;;26.10;40.02;100305.09;4825436;29;19928;-70
2022/08/10 08:24:35;;;;;;;;;;;;;;;26.21;38.83;100302.75;4825567;29;19928;-71
2022/08/10 08:27:06;;;;;;;;;;;;;;;26.35;39.08;100305.47;4825112;29;19929;-70
2022/08/10 08:29:36;;;;;;;;;;;;;;;26.43;38.64;100303.28;4825062;29;19995;-71
2022/08/10 08:32:08;;;;;;;;;;;;;;;26.35;37.84;100305.47;4825062;29;19933;-72
2022/08/10 08:34:38;;;;;;;;;;;;;;;26.40;37.51;100302.59;4825009;29;19982;-70
2022/08/10 08:37:09;;;;;;;;;;;;;;;26.52;37.34;100305.38;4825243;29;19933;-71
2022/08/10 08:39:38;;;;;;;;;;;;;;;26.47;36.82;100309.16;4824841;29;19968;-70
2022/08/10 08:42:26;;;;;;;;;;;;;;;26.36;37.10;100301.94;4824912;29;19971;-71
2022/08/10 08:45:03;;;;;;;;;;;;;;;26.43;36.92;100303.28;4820464;29;20028;-70
2022/08/10 08:47:46;;;;;;;;;;;;;;;26.47;36.33;100299.53;4824854;29;20387;-71
2022/08/10 08:50:40;;;;;;;;;;;;;;;26.57;36.62;100295.47;4823947;29;20474;-70
2022/08/10 08:53:16;;;;;;;;;;;;;;;26.63;36.68;100289.06;4825051;29;19952;-72
2022/08/10 08:55:53;;;;;;;;;;;;;;;26.57;36.04;100295.47;4825087;29;20027;-72
2022/08/10 08:58:46;;;;;;;;;;;;;;;26.52;35.83;100299.28;4823651;29;19928;-70
2022/08/10 09:01:25;;;;;;;;;;;;;;;26.68;35.66;100286.19;4824870;29;20031;-70
2022/08/10 09:04:17;;;;;;;;;;;;;;;26.78;35.77;100297.84;4824422;29;19936;-70
2022/08/10 09:06:55;;;;;;;;;;;;;;;26.83;35.68;100301.88;4824696;29;19982;-70
2022/08/10 09:09:35;;;;;;;;;;;;;;;26.90;35.63;100286.66;4824659;29;19929;-72
2022/08/10 09:12:13;;;;;;;;;;;;;;;26.98;35.60;100289.66;4826101;29;19929;-70
2022/08/10 09:14:49;;;;;;;;;;;;;;;27.11;35.33;100291.47;4811760;29;19929;-72
2022/08/10 09:17:20;;;;;;;;;;;;;;;27.17;34.93;100296.38;4827814;29;19933;-71
2022/08/10 09:19:54;;;;;;;;;;;;;;;27.24;35.01;100291.59;4827748;29;19929;-72
2022/08/10 09:22:29;;;;;;;;;;;;;;;27.28;34.83;100283.44;4828038;29;19928;-71
2022/08/10 09:25:00;;;;;;;;;;;;;;;27.29;34.95;100284.31;4828023;29;20016;-70
2022/08/10 09:27:32;;;;;;;;;;;;;;;27.31;34.25;100292.91;4827953;29;19968;-70
2022/08/10 09:30:05;;;;;;;;;;;;;;;27.27;34.65;100280.94;4827925;29;19929;-70
2022/08/10 09:32:39;;;;;;;;;;;;;;;27.32;34.65;100278.03;4828294;29;19928;-71
2022/08/10 09:35:33;;;;;;;;;;;;;;;27.34;34.76;100277.00;4827791;29;19932;-72
2022/08/10 09:38:32;;;;;;;;;;;;;;;27.31;34.50;100277.19;4826393;29;20011;-71
2022/08/10 09:41:10;;;;;;;;;;;;;;;27.33;34.55;100272.69;4827467;29;20019;-71
2022/08/10 09:43:50;;;;;;;;;;;;;;;27.42;34.74;100273.94;4827711;29;19981;-71
2022/08/10 09:46:28;;;;;;;;;;;;;;;27.47;34.61;100270.13;4827461;29;19928;-71
2022/08/10 09:49:02;;;;;;;;;;;;;;;27.62;34.29;100266.53;4827632;29;20102;-70
2022/08/10 09:51:36;;;;;;;;;;;;;;;27.73;33.92;100269.38;4827288;29;19933;-71
2022/08/10 09:54:21;;;;;;;;;;;;;;;27.83;33.20;100264.38;4828206;29;20019;-71
2022/08/10 09:56:57;;;;;;;;;;;;;;;27.87;33.24;100256.22;4827190;29;19993;-71
2022/08/10 09:59:50;;;;;;;;;;;;;;;27.90;32.65;100260.44;4827240;29;19945;-70
2022/08/10 10:02:36;;;;;;;;;;;;;;;27.87;33.06;100256.22;4827213;29;19929;-70
2022/08/10 10:05:12;;;;;;;;;;;;;;;27.90;33.52;100249.94;4826979;29;19929;-72
2022/08/10 10:07:46;;;;;;;;;;;;;;;27.91;33.62;100252.47;4827990;29;20383;-70
2022/08/10 10:10:19;;;;;;;;;;;;;;;27.96;32.91;100246.06;4827322;29;19929;-70
2022/08/10 10:12:53;;;;;;;;;;;;;;;28.05;32.62;100242.91;4827235;29;20384;-71
2022/08/10 10:15:26;;;;;;;;;;;;;;;27.95;32.13;100254.91;4827314;29;19971;-70
2022/08/10 10:18:11;;;;;;;;;;;;;;;28.00;32.29;100252.88;4826914;29;19929;-71
2022/08/10 10:20:42;;;;;;;;;;;;;;;28.05;32.22;100245.53;4827084;29;19929;-70
2022/08/10 10:23:18;;;;;;;;;;;;;;;28.19;32.09;100235.00;4826809;29;19944;-71
2022/08/10 10:25:50;;;;;;;;;;;;;;;28.22;31.95;100245.31;4827138;29;19972;-71
2022/08/10 10:28:31;;;;;;;;;;;;;;;28.38;32.00;100246.00;4826781;29;19928;-71
2022/08/10 10:31:24;;;;;;;;;;;;;;;28.52;31.67;100236.28;4826756;29;19933;-71
2022/08/10 10:34:00;;;;;;;;;;;;;;;28.40;30.27;100236.22;4826689;29;20447;-70
2022/08/10 10:36:29;;;;;;;;;;;;;;;28.38;29.98;100225.84;4826933;29;20427;-70
2022/08/10 10:39:00;;;;;;;;;;;;;;;28.37;29.95;100225.91;4826517;29;19985;-71
2022/08/10 10:41:36;;;;;;;;;;;;;;;28.36;30.18;100216.38;4826829;29;19933;-70
2022/08/10 10:44:34;;;;;;;;;;;;;;;28.44;30.42;100219.31;4826829;29;19982;-70
2022/08/10 10:47:14;;;;;;;;;;;;;;;28.51;29.93;100210.09;4826443;29;19929;-71
2022/08/10 10:49:49;;;;;;;;;;;;;;;28.70;30.21;100210.59;4826982;29;19929;-70
2022/08/10 10:52:27;;;;;;;;;;;;;;;28.75;29.97;100211.13;4826369;29;19940;-69
2022/08/10 10:55:03;;;;;;;;;;;;;;;28.89;29.79;100211.03;4810622;29;19928;-70
2022/08/10 10:57:40;;;;;;;;;;;;;;;29.03;29.85;100218.81;4826634;29;19986;-70
2022/08/10 11:00:29;;;;;;;;;;;;;;;29.09;29.35;100210.53;4826823;29;20024;-69
2022/08/10 11:03:13;;;;;;;;;;;;;;;29.18;29.37;100212.53;4826173;29;20418;-69
2022/08/10 11:05:47;;;;;;;;;;;;;;;29.08;28.90;100216.72;4826073;29;20269;-70
2022/08/10 11:08:18;;;;;;;;;;;;;;;29.25;29.58;100207.69;4826261;29;20372;-69
2022/08/10 11:11:01;;;;;;;;;;;;;;;29.31;29.40;100211.69;4826425;29;19928;-70
2022/08/10 11:13:34;;;;;;;;;;;;;;;29.39;29.51;100214.66;4826261;29;19928;-70
2022/08/10 11:16:28;;;;;;;;;;;;;;;29.51;29.61;100195.38;4824941;29;19928;-69
2022/08/10 11:18:59;;;;;;;;;;;;;;;29.64;29.70;100204.06;4826079;29;19978;-70
2022/08/10 11:21:35;;;;;;;;;;;;;;;29.71;29.54;100200.03;4826533;29;19933;-69
2022/08/10 11:24:08;;;;;;;;;;;;;;;29.64;29.50;100204.06;4826281;29;19928;-69
2022/08/10 11:27:02;;;;;;;;;;;;;;;29.64;29.64;100189.13;4826232;29;19968;-70
2022/08/10 11:29:33;;;;;;;;;;;;;;;29.67;29.57;100194.16;4825874;29;19962;-72
2022/08/10 11:32:07;;;;;;;;;;;;;;;29.69;29.46;100191.41;4825760;29;19936;-69
2022/08/10 11:34:51;;;;;;;;;;;;;;;29.72;29.52;100197.31;4825418;29;19933;-72
2022/08/10 11:37:45;;;;;;;;;;;;;;;29.66;29.40;100191.63;4826005;29;19929;-72
2022/08/10 11:40:39;;;;;;;;;;;;;;;29.85;29.37;100187.59;4825990;29;19929;-70
2022/08/10 11:43:10;;;;;;;;;;;;;;;29.82;28.86;100184.38;4826023;29;19928;-71
2022/08/10 11:45:42;;;;;;;;;;;;;;;29.81;28.64;100195.84;4825694;29;20009;-71
2022/08/10 11:48:27;;;;;;;;;;;;;;;29.75;28.78;100186.56;4825842;29;19929;-71
2022/08/10 11:51:19;;;;;;;;;;;;;;;29.90;28.77;100179.38;4825799;29;20023;-70
2022/08/10 11:53:50;;;;;;;;;;;;;;;29.97;28.53;100180.59;4825846;29;19978;-71
2022/08/10 11:56:24;;;;;;;;;;;;;;;29.93;29.10;100189.69;4825504;29;19968;-70
2022/08/10 12:01:45;;;;;;;;;;;;;;;30.07;29.27;100186.03;4825820;29;19929;-71
2022/08/10 12:04:14;;;;;;;;;;;;;;;30.03;29.83;100180.19;4825361;29;19936;-71
2022/08/10 12:06:43;;;;;;;;;;;;;;;30.17;29.97;100187.06;4825622;29;20384;-71
2022/08/10 12:09:25;;;;;;;;;;;;;;;30.25;30.00;100180.28;4825323;29;19971;-71
2022/08/10 12:12:15;;;;;;;;;;;;;;;30.54;31.24;100174.66;4825972;29;19977;-71
2022/08/10 12:14:48;;;;;;;;;;;;;;;30.52;30.42;100175.59;4825679;29;20432;-72
2022/08/10 12:17:20;;;;;;;;;;;;;;;30.66;29.62;100171.09;4825235;29;19935;-71
2022/08/10 12:19:53;;;;;;;;;;;;;;;30.71;29.39;100161.91;4825137;29;20023;-71
2022/08/10 12:22:34;;;;;;;;;;;;;;;30.91;30.54;100155.09;4825132;29;19929;-71
2022/08/10 12:25:04;;;;;;;;;;;;;;;30.99;30.30;100160.63;4825734;29;20398;-71
2022/08/10 12:27:37;;;;;;;;;;;;;;;30.98;30.00;100156.31;4825082;29;20019;-71
2022/08/10 12:30:08;;;;;;;;;;;;;;;30.87;29.69;100156.28;4825652;29;19928;-71
2022/08/10 12:32:41;;;;;;;;;;;;;;;30.73;29.22;100157.34;4825316;29;20015;-70
2022/08/10 12:35:16;;;;;;;;;;;;;;;30.66;29.22;100147.38;4825191;29;19933;-70
2022/08/10 12:37:56;;;;;;;;;;;;;;;30.52;28.63;100158.13;4825365;29;19939;-69
2022/08/10 12:40:27;;;;;;;;;;;;;;;30.40;28.64;100152.81;4824724;29;19928;-70
2022/08/10 12:43:08;;;;;;;;;;;;;;;30.38;29.55;100153.88;4824943;29;19935;-70
2022/08/10 12:46:02;;;;;;;;;;;;;;;30.62;29.94;100156.50;4826175;29;19936;-71
2022/08/10 12:48:37;;;;;;;;;;;;;;;30.32;29.59;100155.16;4828322;29;19982;-70
2022/08/10 12:51:10;;;;;;;;;;;;;;;30.37;29.40;100152.22;4828671;29;20027;-70
2022/08/10 12:53:46;;;;;;;;;;;;;;;30.35;29.50;100147.03;4828585;29;19929;-68
2022/08/10 12:56:23;;;;;;;;;;;;;;;30.44;29.72;100159.56;4825238;29;19932;-68
2022/08/10 12:58:52;;;;;;;;;;;;;;;30.42;29.50;100150.94;4816221;29;19962;-67
2022/08/10 13:01:31;;;;;;;;;;;;;;;30.59;29.96;100140.91;4810484;29;19952;-68
2022/08/10 13:04:27;;;;;;;;;;;;;;;30.66;29.36;100136.84;4809556;29;19936;-68
2022/08/10 13:06:55;;;;;;;;;;;;;;;30.85;30.09;100137.09;4811321;29;19929;-71
2022/08/10 13:09:25;;;;;;;;;;;;;;;30.72;29.42;100131.06;4809739;29;19986;-69
2022/08/10 13:11:56;;;;;;;;;;;;;;;30.55;29.17;100129.72;4809743;29;20296;-69
2022/08/10 13:14:48;;;;;;;;;;;;;;;30.60;30.07;100127.59;4809823;29;19929;-69
2022/08/10 13:17:22;;;;;;;;;;;;;;;30.42;29.66;100135.13;4810303;29;20024;-70
2022/08/10 13:20:12;;;;;;;;;;;;;;;30.19;29.45;100128.03;4827681;29;20323;-68
2022/08/10 13:22:41;;;;;;;;;;;;;;;30.14;29.59;100124.09;4827766;29;20015;-68